Historique des stations

Station météo de Beddes

Altitude de la station : 224 m







Données météorologiques pour le 14/08/2022
Date
Heure
Températures Humidité Point de rosée Vitesse
du vent
Direction Rafales Windchill Pression Pluviométrie
Cumul
Date
Heure
Températures Humidité Point de rosée Vitesse
du vent
Direction Rafales Windchill Pression Pluviométrie
Cumul
14/08/2022 05:4619.3 °C92 %17.8 °C---19.4 1012 hPa11.2 mm
14/08/2022 05:4519.3 °C92 %17.8 °C-ONO29 km/h19.4 1012 hPa11 mm
14/08/2022 05:3119.3 °C91 %17.8 °C---19.4 1012 hPa8.2 mm
14/08/2022 05:3019.3 °C91 %17.8 °C-SO29 km/h19.4 1012 hPa8 mm
14/08/2022 05:1619.6 °C90 %17.8 °C---19.4 1012 hPa5.6 mm
14/08/2022 05:1519.6 °C90 %17.8 °C-O29 km/h19.4 1012 hPa5.2 mm
14/08/2022 05:0119.8 °C89 %17.8 °C---20.0 1013 hPa2.4 mm
14/08/2022 05:0019.8 °C89 %17.8 °C-ONO29 km/h20.0 1013 hPa2.4 mm
14/08/2022 04:4620.3 °C87 %18.3 °C---20.6 1012 hPa0.6 mm
14/08/2022 04:4520.3 °C86 %17.8 °C-ONO29 km/h20.6 1012 hPa0.4 mm
14/08/2022 04:3121.0 °C83 %17.8 °C---21.1 1012 hPa-
14/08/2022 04:3021.1 °C83 %18.3 °C-O29 km/h21.1 1012 hPa-
14/08/2022 04:1621.4 °C81 %17.8 °C---21.7 1012 hPa-
14/08/2022 04:1521.4 °C81 %17.8 °C-NO29 km/h21.7 1011 hPa-
14/08/2022 04:0121.8 °C79 %17.8 °C---21.7 1012 hPa-
14/08/2022 04:0021.8 °C78 %17.8 °C-O29 km/h21.7 1012 hPa-
14/08/2022 03:4622.3 °C77 %18.3 °C-NNO5 km/h22.2 1011 hPa-
14/08/2022 03:4522.3 °C77 %18.3 °C2 km/hONO29 km/h22.2 1011 hPa-
14/08/2022 03:3223.5 °C73 %18.3 °C-NO21 km/h23.3 1010 hPa-
14/08/2022 03:3023.6 °C73 %18.3 °C-NO24 km/h23.9 1010 hPa-
14/08/2022 03:1621.6 °C51 %11.1 °C-O16 km/h21.7 1010 hPa-
14/08/2022 03:1521.3 °C50 %10.6 °C-NO23 km/h21.1 1009 hPa-
14/08/2022 03:0119.4 °C59 %11.1 °C---19.4 1008 hPa-
14/08/2022 03:0019.5 °C62 %11.7 °C---19.4 1008 hPa-
14/08/2022 02:4719.2 °C58 %10.6 °C---19.4 1008 hPa-
14/08/2022 02:4519.2 °C59 %11.1 °C---19.4 1008 hPa-
14/08/2022 02:3319.2 °C60 %11.1 °C---19.4 1008 hPa-
14/08/2022 02:3019.2 °C60 %11.1 °C---19.4 1008 hPa-
14/08/2022 02:1718.8 °C57 %10.0 °C---18.9 1009 hPa-
14/08/2022 02:1518.7 °C58 %10.0 °C---18.9 1009 hPa-
14/08/2022 02:0219.1 °C62 %11.7 °C---18.9 1009 hPa-
14/08/2022 02:0019.1 °C62 %11.7 °C---18.9 1009 hPa-
14/08/2022 01:4719.2 °C55 %10.0 °C---19.4 1009 hPa-
14/08/2022 01:4419.2 °C55 %10.0 °C---19.4 1009 hPa-
14/08/2022 01:3019.3 °C55 %10.0 °C---19.4 1009 hPa-
14/08/2022 01:2919.3 °C56 %10.0 °C---19.4 1009 hPa-
14/08/2022 01:1519.3 °C55 %10.0 °C---19.4 1009 hPa-
14/08/2022 01:1419.3 °C55 %10.0 °C---19.4 1009 hPa-
14/08/2022 01:0119.3 °C56 %10.0 °C---19.4 1009 hPa-
14/08/2022 00:5919.3 °C56 %10.0 °C---19.4 1009 hPa-
14/08/2022 00:4719.2 °C56 %10.0 °C---19.4 1009 hPa-
14/08/2022 00:4419.2 °C56 %10.0 °C---19.4 1009 hPa-
14/08/2022 00:3219.7 °C55 %10.6 °C---19.4 1010 hPa-
14/08/2022 00:2919.8 °C55 %10.6 °C---20.0 1010 hPa-
14/08/2022 00:1820.2 °C52 %10.0 °C---20.0 1010 hPa-
14/08/2022 00:1520.2 °C51 %9.4 °C---20.0 1009 hPa-
14/08/2022 00:0220.3 °C51 %10.0 °C---20.6 1010 hPa-
14/08/2022 00:0020.3 °C51 %10.0 °C---20.6 1010 hPa-


Minima :

Température : 18.7 °C
Humidité : 50 %
Point de rosée : 9.4 °C
Vent moyen : 2 km/h
Windchill : 18.9
Pression atm. : 1008 hPa
Maxima :

Température : 23.6 °C
Humidité : 92 %
Point de rosée : 18.3 °C
Vent moyen : 2 km/h
Windchill : 23.9
Pression atm. : 1013 hPa
Rafales max : 29 km/h
Cumul de pluie sur 24H : 11.2 mm

Beddes est une commune du département Cher (18).
La station météorologique du réseau de l'association la plus proche de Beddes est celle de Culan



Icône Facebook Association Météo Centre Icône Twitter Association Météo Centre Icône Chaîne Youtube Association Météo Centre Icône contact Association Météo Centre Icône Insta Association Météo Centre